Time;durP1;ratioP1;P1;durP2;ratioP2;P2;SDS_P1;SDS_P2;PMS_P1;PMS_P2;Temp;Humidity;BMP_temperature;BMP_pressure;BME280_temperature;BME280_humidity;BME280_pressure;Samples;Min_cycle;Max_cycle;Signal;HPM_P1;HPM_P2
2022/01/25 00:15:13;;;;;;;;;;;;;;;31.46;14.61;102262.69;5016180;28;668;-35
2022/01/25 00:33:32;;;;;;;;;;;;;;;31.86;14.30;102239.03;5033917;28;622;-36
2022/01/25 00:36:00;;;;;;;;;;;;;;;31.97;14.10;102243.22;5030845;28;742;-34
2022/01/25 00:38:28;;;;;;;;;;;;;;;31.96;14.12;102243.38;5022340;28;2331;-31
2022/01/25 00:40:53;;;;;;;;;;;;;;;32.22;14.01;102245.78;5019328;28;996;-35
2022/01/25 00:43:21;;;;;;;;;;;;;;;31.28;14.89;102242.00;5019460;28;884;-37
2022/01/25 00:45:48;;;;;;;;;;;;;;;30.86;15.08;102241.25;5019423;28;957;-37
2022/01/25 00:48:19;;;;;;;;;;;;;;;31.30;14.93;102234.50;5018634;28;1150;-33
2022/01/25 00:50:45;;;;;;;;;;;;;;;31.60;14.75;102231.16;5025322;28;1013;-32
2022/01/25 00:56:08;;;;;;;;;;;;;;;31.76;14.71;102231.06;4984407;28;1444;-33
2022/01/25 00:58:33;;;;;;;;;;;;;;;31.52;14.88;102226.59;5019195;28;2015;-34
2022/01/25 01:00:58;;;;;;;;;;;;;;;31.65;14.58;102220.59;5018890;28;869;-38
2022/01/25 01:03:23;;;;;;;;;;;;;;;31.75;14.57;102217.63;5019033;28;825;-36
2022/01/25 01:05:49;;;;;;;;;;;;;;;31.75;14.72;102215.78;5019089;28;873;-34
2022/01/25 01:08:14;;;;;;;;;;;;;;;31.92;14.35;102221.13;5019146;28;893;-36
2022/01/25 01:10:39;;;;;;;;;;;;;;;31.97;14.25;102220.59;5020182;28;935;-35
2022/01/25 01:16:00;;;;;;;;;;;;;;;32.07;14.44;102214.91;5003100;28;1184;-35
2022/01/25 01:45:25;;;;;;;;;;;;;;;32.03;14.50;102197.25;5018151;28;762;-38
2022/01/25 01:47:51;;;;;;;;;;;;;;;32.07;14.56;102184.97;5018626;28;877;-38
2022/01/25 01:50:28;;;;;;;;;;;;;;;32.08;14.58;102186.69;5022924;28;970;-34
2022/01/25 01:52:53;;;;;;;;;;;;;;;32.25;14.43;102182.78;5017531;28;877;-33
2022/01/25 01:55:18;;;;;;;;;;;;;;;31.84;14.77;102178.50;5020333;28;1049;-38
2022/01/25 01:57:46;;;;;;;;;;;;;;;31.31;15.08;102176.38;5017837;28;1968;-36
2022/01/25 02:00:11;;;;;;;;;;;;;;;31.04;15.38;102176.69;5030765;28;774;-38
2022/01/25 02:02:36;;;;;;;;;;;;;;;31.77;14.89;102175.63;5037171;28;847;-35
2022/01/25 02:05:02;;;;;;;;;;;;;;;31.77;15.01;102174.78;5030918;28;809;-32
2022/01/25 02:07:27;;;;;;;;;;;;;;;31.76;15.14;102165.75;5017588;28;979;-32
2022/01/25 02:09:52;;;;;;;;;;;;;;;31.85;14.91;102168.44;5019645;28;836;-35
2022/01/25 02:12:18;;;;;;;;;;;;;;;31.74;15.22;102162.41;5017756;28;798;-35
2022/01/25 02:14:43;;;;;;;;;;;;;;;31.86;15.04;102170.13;5017980;28;797;-36
2022/01/25 02:22:32;;;;;;;;;;;;;;;32.14;14.72;102158.72;5030195;28;639;-34
2022/01/25 02:24:58;;;;;;;;;;;;;;;32.20;14.91;102168.03;5023903;28;884;-37
2022/01/25 02:27:23;;;;;;;;;;;;;;;32.33;14.60;102154.63;5017430;28;850;-37
2022/01/25 02:29:48;;;;;;;;;;;;;;;32.24;14.54;102147.56;5021939;28;815;-36
2022/01/25 02:32:14;;;;;;;;;;;;;;;31.61;15.08;102152.13;5017573;28;873;-33
2022/01/25 02:34:39;;;;;;;;;;;;;;;31.85;15.13;102152.09;5017523;28;901;-35
2022/01/25 02:37:05;;;;;;;;;;;;;;;31.90;15.19;102144.25;5017036;28;1898;-36
2022/01/25 02:39:33;;;;;;;;;;;;;;;31.94;15.29;102145.59;5031301;28;889;-36
2022/01/25 02:41:58;;;;;;;;;;;;;;;31.94;14.98;102147.44;5035676;28;883;-36
2022/01/25 02:44:26;;;;;;;;;;;;;;;31.91;15.12;102147.81;5017141;28;836;-32
2022/01/25 02:49:20;;;;;;;;;;;;;;;32.00;15.24;102150.31;5019739;28;1006;-35
2022/01/25 02:51:46;;;;;;;;;;;;;;;32.13;15.27;102146.16;5016616;28;791;-34
2022/01/25 02:54:11;;;;;;;;;;;;;;;32.19;14.96;102152.72;5018791;28;1090;-36
2022/01/25 02:56:37;;;;;;;;;;;;;;;32.30;14.73;102146.81;5016377;28;1906;-34
2022/01/25 02:59:03;;;;;;;;;;;;;;;32.40;14.91;102140.28;5017278;28;827;-38
2022/01/25 03:01:28;;;;;;;;;;;;;;;32.30;14.79;102137.81;5016680;28;826;-34
2022/01/25 03:03:53;;;;;;;;;;;;;;;31.10;12.85;102137.06;5017081;28;841;-33
2022/01/25 03:06:19;;;;;;;;;;;;;;;30.48;13.83;102123.13;5017410;28;830;-36
2022/01/25 03:08:45;;;;;;;;;;;;;;;31.44;14.39;102126.03;5017486;28;789;-36
2022/01/25 03:11:10;;;;;;;;;;;;;;;31.11;14.66;102125.19;5022215;28;1027;-38
2022/01/25 03:13:48;;;;;;;;;;;;;;;30.73;15.35;102133.09;5016478;28;819;-32
2022/01/25 03:16:20;;;;;;;;;;;;;;;30.41;15.71;102124.84;5017008;28;799;-32
2022/01/25 03:18:47;;;;;;;;;;;;;;;30.35;15.76;102117.38;5016653;28;1959;-35
2022/01/25 03:21:32;;;;;;;;;;;;;;;30.12;15.93;102123.47;5016307;28;810;-32
2022/01/25 03:23:57;;;;;;;;;;;;;;;29.92;16.19;102111.13;5016529;28;817;-35
2022/01/25 03:26:22;;;;;;;;;;;;;;;29.84;16.30;102115.69;5030355;28;866;-35
2022/01/25 03:28:48;;;;;;;;;;;;;;;29.77;16.52;102113.66;5035355;28;936;-35
2022/01/25 03:31:13;;;;;;;;;;;;;;;29.67;16.53;102108.41;5035440;28;862;-37
2022/01/25 03:33:39;;;;;;;;;;;;;;;29.52;16.79;102104.59;5029416;28;766;-37
2022/01/25 03:36:04;;;;;;;;;;;;;;;29.46;16.89;102106.13;5035540;28;705;-34
2022/01/25 03:38:29;;;;;;;;;;;;;;;29.34;16.99;102108.28;5035540;28;1958;-32
2022/01/25 03:40:55;;;;;;;;;;;;;;;29.36;17.11;102106.28;5031409;28;903;-34
2022/01/25 03:43:20;;;;;;;;;;;;;;;29.34;16.87;102103.69;5035187;28;901;-34
2022/01/25 03:45:58;;;;;;;;;;;;;;;29.28;17.02;102107.09;5033906;28;809;-33
2022/01/25 03:50:49;;;;;;;;;;;;;;;29.03;17.40;102111.59;5017743;28;1057;-35
2022/01/25 03:53:15;;;;;;;;;;;;;;;29.05;17.44;102110.41;5016745;28;941;-34
2022/01/25 03:55:40;;;;;;;;;;;;;;;29.31;17.23;102100.50;5027871;28;1053;-35
2022/01/25 03:58:05;;;;;;;;;;;;;;;29.46;17.39;102098.00;5035057;28;1902;-36
2022/01/25 04:00:31;;;;;;;;;;;;;;;29.53;17.10;102090.88;5017517;28;786;-38
2022/01/25 04:08:08;;;;;;;;;;;;;;;30.27;16.21;102086.53;5039298;28;715;-35
2022/01/25 04:10:34;;;;;;;;;;;;;;;30.44;16.09;102086.50;5030546;28;999;-36
2022/01/25 04:12:59;;;;;;;;;;;;;;;30.60;15.91;102082.03;5022277;28;900;-36
2022/01/25 04:15:24;;;;;;;;;;;;;;;29.80;16.42;102083.47;5020257;28;830;-36
2022/01/25 04:17:58;;;;;;;;;;;;;;;29.59;16.96;102083.97;5020547;28;1894;-38
2022/01/25 04:20:31;;;;;;;;;;;;;;;28.18;11.65;102074.16;5032377;28;826;-35
2022/01/25 04:25:40;;;;;;;;;;;;;;;29.33;13.85;102083.03;5029159;28;745;-38
2022/01/25 04:28:05;;;;;;;;;;;;;;;29.63;14.34;102081.78;5038724;28;1494;-35
2022/01/25 04:30:31;;;;;;;;;;;;;;;29.55;14.35;102082.56;5039311;28;750;-34
2022/01/25 04:33:01;;;;;;;;;;;;;;;29.49;14.57;102073.25;5038920;28;802;-39
2022/01/25 04:35:42;;;;;;;;;;;;;;;29.83;14.37;102074.16;5038328;28;791;-34
2022/01/25 04:49:10;;;;;;;;;;;;;;;30.41;14.20;102076.00;5037785;28;942;-35
2022/01/25 04:54:24;;;;;;;;;;;;;;;29.90;11.05;102071.59;5018806;28;1265;-38
2022/01/25 04:57:04;;;;;;;;;;;;;;;28.29;11.21;102074.91;5034886;28;1886;-38
2022/01/25 04:59:45;;;;;;;;;;;;;;;28.32;11.26;102077.28;5037671;28;1639;-39
2022/01/25 05:02:16;;;;;;;;;;;;;;;28.53;13.04;102074.25;5019087;28;818;-35
2022/01/25 05:05:06;;;;;;;;;;;;;;;28.75;13.37;102073.81;5018438;28;774;-37
2022/01/25 05:10:18;;;;;;;;;;;;;;;28.72;14.03;102075.00;5005643;28;1148;-37
2022/01/25 05:12:50;;;;;;;;;;;;;;;28.83;14.09;102072.00;5037447;28;826;-35
2022/01/25 05:16:03;;;;;;;;;;;;;;;29.45;13.52;102064.59;5037054;28;786;-36
2022/01/25 05:18:15;;;;;;;;;;;;;;;28.92;13.95;102059.38;5026160;28;1910;-33
2022/01/25 05:23:27;;;;;;;;;;;;;;;29.68;13.84;102052.28;5037955;28;837;-35
2022/01/25 05:25:52;;;;;;;;;;;;;;;29.76;14.00;102054.97;5033471;28;894;-33
2022/01/25 05:28:17;;;;;;;;;;;;;;;29.05;14.31;102045.38;5030526;28;859;-34
2022/01/25 05:30:43;;;;;;;;;;;;;;;29.62;14.31;102050.25;5018509;28;891;-32
2022/01/25 05:33:08;;;;;;;;;;;;;;;29.31;14.57;102043.59;5019078;28;847;-36
2022/01/25 05:35:33;;;;;;;;;;;;;;;29.70;14.25;102050.25;5017918;28;857;-36
2022/01/25 05:37:58;;;;;;;;;;;;;;;29.53;14.36;102049.38;5018544;28;1898;-36
2022/01/25 05:40:40;;;;;;;;;;;;;;;29.62;14.31;102042.09;5019786;28;927;-36
2022/01/25 05:46:11;;;;;;;;;;;;;;;29.51;14.48;102040.56;5031494;28;793;-36
2022/01/25 05:48:26;;;;;;;;;;;;;;;29.52;14.45;102044.97;5036478;28;1576;-37
2022/01/25 05:50:52;;;;;;;;;;;;;;;29.57;14.61;102046.16;5022275;28;953;-34
2022/01/25 05:53:17;;;;;;;;;;;;;;;29.82;14.61;102053.47;5018666;28;838;-38
2022/01/25 05:55:42;;;;;;;;;;;;;;;29.94;14.47;102056.69;5019169;28;1057;-36
2022/01/25 05:58:08;;;;;;;;;;;;;;;30.09;14.03;102059.56;5018342;28;1910;-36
2022/01/25 06:00:33;;;;;;;;;;;;;;;29.71;14.58;102060.09;5018361;28;842;-37
2022/01/25 06:02:58;;;;;;;;;;;;;;;29.80;14.65;102066.34;5017926;28;834;-37
2022/01/25 06:05:25;;;;;;;;;;;;;;;29.89;14.43;102059.06;5018089;28;885;-35
2022/01/25 06:07:51;;;;;;;;;;;;;;;29.90;14.49;102060.75;5021210;28;870;-36
2022/01/25 06:10:16;;;;;;;;;;;;;;;30.08;14.31;102063.28;5023983;28;818;-34
2022/01/25 06:12:45;;;;;;;;;;;;;;;30.17;14.23;102062.25;5036863;28;748;-35
2022/01/25 06:15:13;;;;;;;;;;;;;;;30.49;13.90;102062.41;5024817;28;1074;-39
2022/01/25 06:17:38;;;;;;;;;;;;;;;30.41;14.20;102055.09;5023990;28;1902;-35
2022/01/25 06:20:04;;;;;;;;;;;;;;;30.41;14.11;102055.09;5023169;28;840;-38
2022/01/25 06:22:29;;;;;;;;;;;;;;;30.16;14.18;102052.41;5017394;28;918;-37
2022/01/25 06:24:57;;;;;;;;;;;;;;;30.05;14.06;102052.78;5019327;28;952;-36
2022/01/25 06:27:22;;;;;;;;;;;;;;;30.14;14.15;102045.47;5017857;28;751;-34
2022/01/25 06:29:49;;;;;;;;;;;;;;;30.06;14.40;102041.75;5017730;28;989;-32
2022/01/25 06:32:14;;;;;;;;;;;;;;;30.05;14.36;102039.19;5017100;28;815;-33
2022/01/25 06:34:40;;;;;;;;;;;;;;;29.90;14.45;102037.19;5017038;28;905;-37
2022/01/25 06:37:05;;;;;;;;;;;;;;;29.79;14.51;102032.13;5017604;28;1910;-37
2022/01/25 06:39:30;;;;;;;;;;;;;;;29.74;14.59;102040.78;5019116;28;989;-32
2022/01/25 06:41:56;;;;;;;;;;;;;;;29.82;14.85;102039.91;5030015;28;1121;-36
2022/01/25 06:44:21;;;;;;;;;;;;;;;29.93;14.86;102031.41;5017815;28;902;-35
2022/01/25 06:46:46;;;;;;;;;;;;;;;29.72;14.98;102029.25;5033820;28;917;-35
2022/01/25 06:49:13;;;;;;;;;;;;;;;29.72;15.13;102031.09;5034305;28;1001;-34
2022/01/25 06:51:38;;;;;;;;;;;;;;;29.76;15.01;102030.56;5017291;28;819;-37
2022/01/25 06:54:03;;;;;;;;;;;;;;;29.73;14.84;102027.38;5017410;28;1024;-35
2022/01/25 06:56:29;;;;;;;;;;;;;;;29.62;15.21;102029.41;5019785;28;808;-37
2022/01/25 06:58:54;;;;;;;;;;;;;;;29.55;15.06;102034.63;5016504;28;1958;-35
2022/01/25 07:01:19;;;;;;;;;;;;;;;29.50;15.27;102034.28;5017250;28;874;-33
2022/01/25 07:03:47;;;;;;;;;;;;;;;29.61;15.06;102035.84;5017036;28;755;-34
2022/01/25 07:06:13;;;;;;;;;;;;;;;29.58;15.14;102037.00;5017102;28;809;-37
2022/01/25 07:08:38;;;;;;;;;;;;;;;29.78;15.19;102035.84;5017083;28;803;-36
2022/01/25 07:11:03;;;;;;;;;;;;;;;30.35;14.64;102041.38;5024948;28;1355;-41
2022/01/25 07:13:29;;;;;;;;;;;;;;;30.74;14.27;102043.28;5024581;28;1505;-41
2022/01/25 07:15:54;;;;;;;;;;;;;;;30.78;14.28;102036.47;5018813;28;1466;-42
2022/01/25 07:18:19;;;;;;;;;;;;;;;30.70;14.28;102038.41;5024990;28;1908;-42
2022/01/25 07:20:44;;;;;;;;;;;;;;;30.86;14.56;102037.50;5020378;28;1186;-41
2022/01/25 07:23:10;;;;;;;;;;;;;;;30.59;14.65;102024.16;5022645;28;1264;-40
2022/01/25 07:25:35;;;;;;;;;;;;;;;29.30;15.66;102029.19;5020895;28;1408;-41
2022/01/25 07:28:00;;;;;;;;;;;;;;;29.01;16.51;102029.63;5016582;28;1758;-38
2022/01/25 07:30:26;;;;;;;;;;;;;;;29.30;16.30;102020.19;5006136;28;1538;-39
2022/01/25 07:32:51;;;;;;;;;;;;;;;28.80;16.66;102025.44;5026999;28;1279;-38
2022/01/25 07:35:16;;;;;;;;;;;;;;;28.60;16.98;102025.72;5029427;28;1329;-38
2022/01/25 07:37:42;;;;;;;;;;;;;;;28.58;16.96;102025.03;5020061;28;1957;-37
2022/01/25 07:40:07;;;;;;;;;;;;;;;28.55;17.13;102018.09;5028344;28;1355;-36
2022/01/25 07:42:36;;;;;;;;;;;;;;;29.17;17.54;102018.84;5033358;28;1118;-35
2022/01/25 07:45:04;;;;;;;;;;;;;;;29.64;17.01;102013.81;5028800;28;1395;-41
2022/01/25 07:47:29;;;;;;;;;;;;;;;29.47;16.93;102026.50;5037843;28;883;-38
2022/01/25 07:49:54;;;;;;;;;;;;;;;28.75;17.10;102015.13;5029101;28;1439;-38
2022/01/25 07:52:19;;;;;;;;;;;;;;;28.48;16.71;102017.88;5032763;28;1467;-37
2022/01/25 07:54:45;;;;;;;;;;;;;;;28.77;17.12;102014.94;5023273;28;1439;-37
2022/01/25 07:57:13;;;;;;;;;;;;;;;28.53;17.94;102006.56;5023934;28;1910;-33
2022/01/25 07:59:38;;;;;;;;;;;;;;;28.68;17.70;102019.47;5028708;28;1249;-29
2022/01/25 08:02:04;;;;;;;;;;;;;;;28.68;17.57;102005.94;5023849;28;1264;-33
2022/01/25 08:04:30;;;;;;;;;;;;;;;28.64;17.75;102005.44;5024160;28;1592;-21
2022/01/25 08:06:55;;;;;;;;;;;;;;;27.83;18.94;102008.31;5003597;28;1446;-22
2022/01/25 08:09:23;;;;;;;;;;;;;;;28.18;20.36;102013.78;5029346;28;1383;-24
2022/01/25 08:11:48;;;;;;;;;;;;;;;28.52;20.65;102010.28;5022143;28;1212;-38
2022/01/25 08:14:16;;;;;;;;;;;;;;;28.34;20.10;102018.50;5030245;28;1170;-34
2022/01/25 11:26:41;;;;;;;;;;;;;;;28.79;17.47;101786.31;5085240;27;1337;-61
2022/01/25 11:29:07;;;;;;;;;;;;;;;29.54;16.02;101785.38;5087053;28;1247;-61
2022/01/25 11:31:32;;;;;;;;;;;;;;;29.77;15.57;101784.63;5065895;28;1092;-61
2022/01/25 11:33:57;;;;;;;;;;;;;;;29.84;15.36;101782.94;5068501;28;1366;-59
2022/01/25 11:36:23;;;;;;;;;;;;;;;29.68;15.58;101779.25;5085850;28;1479;-61
2022/01/25 11:38:54;;;;;;;;;;;;;;;30.38;14.79;101783.97;5082429;28;1223;-55
2022/01/25 11:41:21;;;;;;;;;;;;;;;30.41;14.53;101782.81;5089194;28;1262;-57
2022/01/25 11:44:05;;;;;;;;;;;;;;;29.81;15.25;101775.16;5069298;28;1231;-56
2022/01/25 11:46:30;;;;;;;;;;;;;;;29.86;15.37;101772.75;5093219;28;1982;-54
2022/01/25 11:49:05;;;;;;;;;;;;;;;29.96;15.66;101768.97;5093116;28;865;-50
2022/01/25 11:51:33;;;;;;;;;;;;;;;30.50;15.20;101770.00;5080269;28;1572;-55
2022/01/25 11:53:58;;;;;;;;;;;;;;;30.67;14.65;101778.84;5087521;28;1552;-55
2022/01/25 11:56:24;;;;;;;;;;;;;;;30.53;14.61;101775.06;5065176;28;1472;-65
2022/01/25 11:58:56;;;;;;;;;;;;;;;30.24;15.57;101773.91;5064420;28;1391;-64
2022/01/25 12:01:22;;;;;;;;;;;;;;;30.31;15.14;101767.56;5083694;28;1317;-63
2022/01/25 12:03:51;;;;;;;;;;;;;;;30.59;14.72;101768.06;5086469;28;1465;-60
2022/01/25 12:06:29;;;;;;;;;;;;;;;30.67;14.38;101760.69;5091634;28;1965;-59
2022/01/25 12:11:40;;;;;;;;;;;;;;;29.99;9.01;101757.75;5086575;28;1390;-42
2022/01/25 12:16:44;;;;;;;;;;;;;;;26.34;16.75;101752.09;5857239;22;6874;-24
2022/01/25 12:19:11;;;;;;;;;;;;;;;27.00;16.89;101749.09;5049249;28;1215;-20
2022/01/25 12:21:46;;;;;;;;;;;;;;;27.39;15.76;101742.47;5052731;28;769;-20
2022/01/25 12:24:34;;;;;;;;;;;;;;;27.81;16.52;101745.38;5048932;28;1358;-23
2022/01/25 12:27:05;;;;;;;;;;;;;;;27.87;17.16;101740.16;5051611;28;1254;-21
2022/01/25 12:29:30;;;;;;;;;;;;;;;27.89;16.71;101740.00;5051693;28;1358;-18
2022/01/25 12:32:12;;;;;;;;;;;;;;;27.85;16.12;101739.47;5052182;28;988;-20
2022/01/25 12:34:55;;;;;;;;;;;;;;;28.09;16.72;101731.59;5050424;28;1665;-19
2022/01/25 12:37:39;;;;;;;;;;;;;;;27.96;14.65;101737.47;5042677;28;1301;-19
2022/01/25 12:40:23;;;;;;;;;;;;;;;27.93;14.34;101727.81;5037189;28;1311;-23
2022/01/25 12:42:48;;;;;;;;;;;;;;;28.19;16.22;101724.19;5037776;28;1341;-21
2022/01/25 12:45:17;;;;;;;;;;;;;;;28.23;15.87;101730.94;5038559;28;1902;-20
2022/01/25 12:48:02;;;;;;;;;;;;;;;28.15;14.86;101727.34;5029803;28;1377;-21
2022/01/25 12:50:28;;;;;;;;;;;;;;;26.38;10.01;101729.19;5033302;28;1325;-19
2022/01/25 12:52:54;;;;;;;;;;;;;;;25.53;11.76;101725.66;5037169;28;1734;-19
2022/01/25 12:55:23;;;;;;;;;;;;;;;24.62;12.11;101717.94;5037647;28;1361;-19
2022/01/25 12:57:48;;;;;;;;;;;;;;;24.26;10.76;101717.59;5037615;28;1390;-20
2022/01/25 13:00:14;;;;;;;;;;;;;;;23.87;10.97;101715.69;5037772;28;1386;-21
2022/01/25 13:02:39;;;;;;;;;;;;;;;25.59;14.50;101733.16;5036967;28;1226;-19
2022/01/25 13:05:17;;;;;;;;;;;;;;;26.63;15.52;101729.41;5036030;28;1983;-21
2022/01/25 13:07:45;;;;;;;;;;;;;;;27.12;15.27;101733.50;5034007;28;1266;-21
2022/01/25 13:10:11;;;;;;;;;;;;;;;27.35;15.91;101719.44;5035662;28;1282;-20
2022/01/25 13:12:54;;;;;;;;;;;;;;;27.38;16.25;101725.38;5035985;28;1513;-19
2022/01/25 13:18:12;;;;;;;;;;;;;;;27.23;16.97;101711.63;5038569;28;1238;-20
2022/01/25 13:20:39;;;;;;;;;;;;;;;27.45;16.71;101708.53;5038804;28;1243;-21
2022/01/25 13:23:04;;;;;;;;;;;;;;;27.58;16.68;101717.03;5036365;28;1073;-20
2022/01/25 13:25:44;;;;;;;;;;;;;;;27.83;16.40;101708.19;5036114;28;1914;-21
2022/01/25 13:28:21;;;;;;;;;;;;;;;27.86;16.06;101705.16;5035203;28;1219;-21
2022/01/25 13:30:49;;;;;;;;;;;;;;;27.91;16.42;101702.78;5045683;28;1067;-19
2022/01/25 13:33:17;;;;;;;;;;;;;;;27.91;16.36;101705.50;5035875;28;1456;-21
2022/01/25 13:35:47;;;;;;;;;;;;;;;27.96;16.67;101702.31;5037377;28;1168;-22
2022/01/25 13:38:16;;;;;;;;;;;;;;;27.72;17.92;101699.38;5040872;28;1421;-23
2022/01/25 13:46:24;;;;;;;;;;;;;;;28.34;17.14;101689.19;5017400;28;1973;-22
2022/01/25 13:48:50;;;;;;;;;;;;;;;28.32;17.26;101690.34;5031651;28;1642;-21
2022/01/25 13:51:19;;;;;;;;;;;;;;;28.40;15.62;101694.94;5043289;28;1183;-22
2022/01/25 13:53:55;;;;;;;;;;;;;;;28.44;17.36;101690.91;5036759;28;761;-23
2022/01/25 13:56:20;;;;;;;;;;;;;;;27.95;17.87;101687.09;5034752;28;959;-21
2022/01/25 13:58:46;;;;;;;;;;;;;;;27.73;18.38;101690.25;5037132;28;951;-23
2022/01/25 14:01:15;;;;;;;;;;;;;;;27.77;18.06;101685.38;5036353;28;861;-21
2022/01/25 14:03:44;;;;;;;;;;;;;;;27.85;17.35;101688.09;5035567;28;974;-21
2022/01/25 14:06:41;;;;;;;;;;;;;;;27.94;16.92;101682.69;5036930;28;1906;-22
2022/01/25 14:09:15;;;;;;;;;;;;;;;27.74;17.62;101677.59;5025072;28;1283;-21
2022/01/25 14:25:12;;;;;;;;;;;;;;;27.71;17.06;101688.75;5035954;28;1906;-20
2022/01/25 14:30:44;;;;;;;;;;;;;;;27.66;16.95;101691.88;5036061;28;1042;-25
2022/01/25 14:33:11;;;;;;;;;;;;;;;27.63;15.70;101687.66;5035719;28;1052;-25
2022/01/25 14:35:49;;;;;;;;;;;;;;;27.41;15.75;101688.25;5035773;28;1058;-25
2022/01/25 14:38:25;;;;;;;;;;;;;;;27.28;15.58;101683.31;5034905;28;1203;-25
2022/01/25 14:41:10;;;;;;;;;;;;;;;27.22;15.25;101674.84;5035871;28;880;-19
2022/01/25 14:43:36;;;;;;;;;;;;;;;27.03;15.54;101675.91;5031034;28;1875;-21
2022/01/25 14:46:06;;;;;;;;;;;;;;;27.04;15.35;101672.22;5031790;28;1902;-19
2022/01/25 14:48:35;;;;;;;;;;;;;;;27.14;15.49;101674.78;5035266;28;1255;-20
2022/01/25 14:51:00;;;;;;;;;;;;;;;27.25;15.59;101677.22;5036369;28;781;-20
2022/01/25 14:53:26;;;;;;;;;;;;;;;27.13;15.83;101675.78;5035200;28;1407;-41
2022/01/25 14:55:52;;;;;;;;;;;;;;;27.17;15.87;101682.56;5034683;28;1053;-42
2022/01/25 15:00:50;;;;;;;;;;;;;;;27.22;16.41;101685.63;5035234;28;851;-34
2022/01/25 15:03:15;;;;;;;;;;;;;;;27.31;16.15;101677.56;5016254;28;773;-34
2022/01/25 15:05:41;;;;;;;;;;;;;;;27.08;16.36;101673.56;5015990;28;1965;-33
2022/01/25 15:08:06;;;;;;;;;;;;;;;27.07;16.91;101676.44;5015973;28;1605;-42
2022/01/25 15:10:33;;;;;;;;;;;;;;;26.80;17.48;101689.91;5025561;28;1597;-39
2022/01/25 15:12:58;;;;;;;;;;;;;;;27.07;17.06;101679.97;5021305;28;1917;-42
2022/01/25 15:15:27;;;;;;;;;;;;;;;27.35;16.94;101682.50;5035043;28;1894;-41
2022/01/25 15:17:52;;;;;;;;;;;;;;;27.54;16.79;101685.09;5035770;28;1147;-41
2022/01/25 15:20:18;;;;;;;;;;;;;;;29.96;15.22;101685.72;5035647;28;840;-50
2022/01/25 15:22:45;;;;;;;;;;;;;;;30.54;14.74;101687.16;5036321;28;833;-38
2022/01/25 15:25:12;;;;;;;;;;;;;;;30.38;14.83;101688.16;5035232;28;785;-40
2022/01/25 15:27:37;;;;;;;;;;;;;;;30.52;14.92;101686.50;5035706;28;813;-41
2022/01/25 15:30:04;;;;;;;;;;;;;;;30.55;15.02;101688.84;5035966;28;754;-41
2022/01/25 15:32:29;;;;;;;;;;;;;;;30.63;14.59;101686.03;5035954;28;769;-49
2022/01/25 15:34:54;;;;;;;;;;;;;;;29.29;15.89;101685.19;5035580;28;1985;-51
2022/01/25 15:37:20;;;;;;;;;;;;;;;28.83;16.01;101694.75;5035721;28;857;-48
2022/01/25 15:39:45;;;;;;;;;;;;;;;29.85;15.36;101691.53;5035236;28;829;-43
2022/01/25 15:42:12;;;;;;;;;;;;;;;30.48;14.87;101698.75;5035695;28;805;-53
2022/01/25 15:44:42;;;;;;;;;;;;;;;30.41;14.75;101701.34;5036192;28;802;-55
2022/01/25 15:47:09;;;;;;;;;;;;;;;30.38;14.42;101699.00;5035232;28;809;-56
2022/01/25 15:49:34;;;;;;;;;;;;;;;30.55;14.44;101707.84;5035990;28;935;-54
2022/01/25 15:52:00;;;;;;;;;;;;;;;30.28;14.70;101710.94;5035560;28;813;-53
2022/01/25 15:54:25;;;;;;;;;;;;;;;30.21;14.65;101709.16;5034676;28;1965;-52
2022/01/25 15:56:50;;;;;;;;;;;;;;;30.33;14.72;101717.72;5034920;28;1060;-53
2022/01/25 15:59:21;;;;;;;;;;;;;;;30.43;15.32;101716.44;5035605;28;1037;-29
2022/01/25 16:01:50;;;;;;;;;;;;;;;30.81;14.93;101716.63;5035194;28;813;-27
2022/01/25 16:04:15;;;;;;;;;;;;;;;30.53;14.68;101718.06;5035775;28;1129;-31
2022/01/25 16:06:41;;;;;;;;;;;;;;;30.59;14.57;101721.91;5035661;28;836;-30
2022/01/25 16:09:07;;;;;;;;;;;;;;;30.43;14.97;101727.28;5034525;28;869;-38
2022/01/25 16:11:33;;;;;;;;;;;;;;;30.57;15.10;101727.50;5035801;28;853;-37
2022/01/25 16:13:58;;;;;;;;;;;;;;;30.61;15.54;101719.84;5038989;28;1147;-32
2022/01/25 16:16:23;;;;;;;;;;;;;;;30.33;15.37;101720.44;5038930;28;1898;-30
2022/01/25 16:18:50;;;;;;;;;;;;;;;30.65;14.94;101722.00;5038990;28;781;-33
2022/01/25 16:21:15;;;;;;;;;;;;;;;30.59;14.88;101722.75;5039288;28;742;-29
2022/01/25 16:23:41;;;;;;;;;;;;;;;30.78;15.29;101724.09;5038755;28;940;-34
2022/01/25 16:26:06;;;;;;;;;;;;;;;29.38;16.00;101719.34;5039056;28;1001;-31
2022/01/25 16:28:32;;;;;;;;;;;;;;;28.92;16.35;101723.50;5039173;28;951;-29
2022/01/25 16:31:05;;;;;;;;;;;;;;;29.44;15.87;101723.25;5038305;28;829;-31
2022/01/25 16:33:30;;;;;;;;;;;;;;;29.52;15.56;101723.22;5038743;28;1042;-33
2022/01/25 16:35:55;;;;;;;;;;;;;;;29.62;15.44;101725.72;5038766;28;1906;-33
2022/01/25 16:38:21;;;;;;;;;;;;;;;29.50;15.45;101727.94;5038368;28;773;-34
2022/01/25 16:40:48;;;;;;;;;;;;;;;29.97;15.56;101733.50;5038760;28;1125;-30
2022/01/25 16:43:13;;;;;;;;;;;;;;;29.66;15.66;101735.19;5038518;28;862;-33
2022/01/25 16:45:39;;;;;;;;;;;;;;;30.02;15.63;101744.69;5038219;28;853;-34
2022/01/25 16:48:04;;;;;;;;;;;;;;;29.62;15.96;101743.84;5037244;28;1093;-30
2022/01/25 16:50:35;;;;;;;;;;;;;;;29.90;16.02;101740.66;5038876;28;1372;-31
2022/01/25 16:53:02;;;;;;;;;;;;;;;29.18;14.74;101741.44;5028543;28;1161;-31
2022/01/25 16:55:28;;;;;;;;;;;;;;;29.62;15.13;101744.72;5035576;28;1886;-33
2022/01/25 16:57:54;;;;;;;;;;;;;;;29.12;15.06;101743.97;5037527;28;1152;-48
2022/01/25 17:00:19;;;;;;;;;;;;;;;29.12;15.35;101746.69;5038793;28;918;-42
2022/01/25 17:02:45;;;;;;;;;;;;;;;29.13;15.00;101740.28;5037316;28;1379;-44
2022/01/25 17:05:10;;;;;;;;;;;;;;;28.92;15.24;101738.91;5038410;28;1191;-44
2022/01/25 17:07:35;;;;;;;;;;;;;;;28.66;15.21;101743.50;5038235;28;886;-43
2022/01/25 17:10:01;;;;;;;;;;;;;;;28.69;14.19;101734.19;5035643;28;1324;-45
2022/01/25 17:12:26;;;;;;;;;;;;;;;28.90;14.94;101738.22;5036677;28;973;-45
2022/01/25 17:14:52;;;;;;;;;;;;;;;29.02;15.23;101745.03;5037528;28;1914;-40
2022/01/25 17:17:17;;;;;;;;;;;;;;;28.96;15.39;101737.56;5037852;28;1129;-40
2022/01/25 17:19:42;;;;;;;;;;;;;;;28.04;16.03;101732.09;5038056;28;786;-41
2022/01/25 17:22:08;;;;;;;;;;;;;;;27.40;16.29;101673.88;5037406;28;874;-40
2022/01/25 17:24:33;;;;;;;;;;;;;;;28.31;16.03;101735.50;5037867;28;833;-42
2022/01/25 17:26:59;;;;;;;;;;;;;;;28.38;15.58;101734.88;5038014;28;896;-41
2022/01/25 17:29:24;;;;;;;;;;;;;;;28.25;15.76;101733.47;5037822;28;890;-34
2022/01/25 17:31:50;;;;;;;;;;;;;;;28.50;15.88;101729.97;5037821;28;801;-35
2022/01/25 17:34:15;;;;;;;;;;;;;;;28.96;15.37;101726.72;5037182;28;805;-35
2022/01/25 17:36:41;;;;;;;;;;;;;;;28.85;15.60;101722.50;5037643;28;1962;-36
2022/01/25 17:39:06;;;;;;;;;;;;;;;28.76;15.69;101716.25;5037210;28;959;-35
2022/01/25 17:41:32;;;;;;;;;;;;;;;28.53;15.79;101713.41;5038051;28;968;-35
2022/01/25 17:43:58;;;;;;;;;;;;;;;28.51;15.91;101716.25;5037679;28;880;-37
2022/01/25 17:46:23;;;;;;;;;;;;;;;28.58;15.61;101714.56;5037113;28;985;-36
2022/01/25 17:48:48;;;;;;;;;;;;;;;28.92;15.64;101714.53;5037486;28;754;-36
2022/01/25 17:51:14;;;;;;;;;;;;;;;29.17;15.51;101709.94;5036125;28;968;-36
2022/01/25 17:53:39;;;;;;;;;;;;;;;29.37;15.36;101714.09;5037308;28;757;-36
2022/01/25 17:56:05;;;;;;;;;;;;;;;29.37;15.23;101712.25;5037443;28;1906;-35
2022/01/25 17:58:30;;;;;;;;;;;;;;;29.21;15.33;101708.56;5037714;28;904;-36
2022/01/25 18:00:55;;;;;;;;;;;;;;;29.21;15.22;101705.84;5034987;28;858;-34
2022/01/25 18:03:21;;;;;;;;;;;;;;;29.20;15.25;101706.03;5037290;28;792;-37
2022/01/25 18:05:46;;;;;;;;;;;;;;;29.17;15.46;101703.69;5037073;28;841;-37
2022/01/25 18:08:11;;;;;;;;;;;;;;;29.54;15.24;101709.47;5036556;28;773;-37
2022/01/25 18:10:37;;;;;;;;;;;;;;;28.88;15.72;101705.91;5037200;28;740;-36
2022/01/25 18:13:02;;;;;;;;;;;;;;;29.06;15.47;101696.78;5036106;28;849;-35
2022/01/25 18:15:27;;;;;;;;;;;;;;;29.21;15.80;101699.63;5037088;28;1965;-36
2022/01/25 18:17:53;;;;;;;;;;;;;;;28.33;16.15;101700.19;5037055;28;1094;-36
2022/01/25 18:20:18;;;;;;;;;;;;;;;28.05;16.66;101701.31;5034895;28;806;-36